Time;durP1;ratioP1;P1;durP2;ratioP2;P2;SDS_P1;SDS_P2;PMS_P1;PMS_P2;Temp;Humidity;BMP_temperature;BMP_pressure;BME280_temperature;BME280_humidity;BME280_pressure;Samples;Min_cycle;Max_cycle;Signal;HPM_P1;HPM_P2
2023/06/05 00:01:37;;;;;;;0.50;0.50;;;10.90;99.90;;;;;;5093753;28;20379;-71
2023/06/05 00:04:03;;;;;;;0.52;0.52;;;10.90;99.90;;;;;;5093820;28;20487;-72
2023/06/05 00:06:30;;;;;;;1.93;1.47;;;10.90;99.90;;;;;;5093582;28;20040;-71
2023/06/05 00:08:56;;;;;;;0.50;0.50;;;11.80;99.90;;;;;;5093862;28;20424;-71
2023/06/05 00:11:21;;;;;;;0.50;0.50;;;10.90;99.90;;;;;;5093866;28;20047;-72
2023/06/05 00:13:48;;;;;;;0.50;0.50;;;10.80;99.90;;;;;;5093695;28;20032;-71
2023/06/05 00:16:15;;;;;;;0.77;0.77;;;10.70;99.90;;;;;;5093573;28;20044;-71
2023/06/05 00:18:42;;;;;;;0.50;0.50;;;10.70;99.90;;;;;;5093130;28;20495;-70
2023/06/05 00:21:08;;;;;;;0.80;0.80;;;10.70;99.90;;;;;;5093784;28;20040;-72
2023/06/05 00:23:34;;;;;;;0.50;0.50;;;10.70;99.90;;;;;;5093387;28;20036;-72
2023/06/05 00:25:59;;;;;;;0.50;0.50;;;10.80;99.90;;;;;;5093371;28;20071;-71
2023/06/05 00:28:25;;;;;;;0.50;0.50;;;10.60;99.90;;;;;;5092596;28;20040;-72
2023/06/05 00:30:51;;;;;;;0.50;0.50;;;10.60;99.90;;;;;;5092452;28;20032;-71
2023/06/05 00:33:16;;;;;;;0.40;0.40;;;10.60;99.90;;;;;;5097154;28;20040;-71
2023/06/05 00:35:43;;;;;;;0.50;0.50;;;10.60;99.90;;;;;;5097985;28;20129;-70
2023/06/05 00:38:08;;;;;;;0.50;0.50;;;10.50;99.90;;;;;;5097286;28;20032;-71
2023/06/05 00:40:34;;;;;;;0.40;0.40;;;10.70;99.90;;;;;;5097373;28;20097;-71
2023/06/05 00:43:00;;;;;;;1.10;0.50;;;10.50;99.90;;;;;;5097261;28;20032;-71
2023/06/05 00:45:25;;;;;;;0.43;0.43;;;10.50;99.90;;;;;;5097653;28;20119;-72
2023/06/05 00:47:51;;;;;;;0.43;0.43;;;10.50;99.90;;;;;;5096831;28;20353;-72
2023/06/05 00:50:21;;;;;;;0.40;0.40;;;10.50;99.90;;;;;;5097138;28;20039;-71
2023/06/05 00:52:47;;;;;;;0.60;0.60;;;10.50;99.90;;;;;;5097336;28;20507;-71
2023/06/05 00:55:13;;;;;;;0.40;0.40;;;10.80;99.90;;;;;;5097163;28;20079;-72
2023/06/05 00:57:39;;;;;;;0.50;0.50;;;10.40;99.90;;;;;;5097259;28;20082;-72
2023/06/05 01:00:08;;;;;;;0.60;0.60;;;10.40;99.90;;;;;;5097138;28;20075;-72
2023/06/05 01:02:37;;;;;;;0.40;0.40;;;10.30;99.90;;;;;;5096853;28;20052;-71
2023/06/05 01:05:03;;;;;;;0.50;0.50;;;10.30;99.90;;;;;;5097002;28;20072;-72
2023/06/05 01:07:32;;;;;;;0.50;0.50;;;10.30;99.90;;;;;;5096928;28;20094;-72
2023/06/05 01:09:59;;;;;;;0.40;0.40;;;10.60;99.90;;;;;;5096820;28;20040;-71
2023/06/05 01:12:28;;;;;;;;;;;10.30;99.90;;;;;;5097315;28;20085;-72
2023/06/05 01:14:58;;;;;;;0.50;0.50;;;10.30;99.90;;;;;;5096772;28;19916;-71
2023/06/05 01:17:25;;;;;;;0.50;0.50;;;10.30;99.90;;;;;;5097226;28;20114;-71
2023/06/05 01:19:52;;;;;;;0.40;0.40;;;10.30;99.90;;;;;;5096757;28;20036;-72
2023/06/05 01:22:18;;;;;;;0.40;0.40;;;10.20;99.90;;;;;;5096983;28;20051;-72
2023/06/05 01:24:43;;;;;;;0.40;0.40;;;10.20;99.90;;;;;;5096879;28;20032;-71
2023/06/05 01:27:15;;;;;;;0.47;0.47;;;10.20;99.90;;;;;;5096612;28;20082;-72
2023/06/05 01:30:02;;;;;;;0.50;0.50;;;10.20;99.90;;;;;;5096439;28;20036;-71
2023/06/05 01:32:36;;;;;;;0.40;0.40;;;10.10;99.90;;;;;;5096545;28;20092;-71
2023/06/05 01:35:06;;;;;;;0.40;0.40;;;10.10;99.90;;;;;;5096707;28;20384;-70
2023/06/05 01:37:40;;;;;;;0.50;0.50;;;10.30;99.90;;;;;;5096359;28;20046;-71
2023/06/05 01:40:10;;;;;;;0.40;0.40;;;10.70;99.90;;;;;;5096435;28;20040;-71
2023/06/05 01:42:38;;;;;;;0.40;0.40;;;10.00;99.90;;;;;;5095685;28;20036;-71
2023/06/05 01:45:05;;;;;;;0.40;0.40;;;10.00;99.90;;;;;;5096225;28;20479;-72
2023/06/05 01:47:32;;;;;;;0.50;0.50;;;10.00;99.90;;;;;;5096475;28;20040;-72
2023/06/05 01:49:57;;;;;;;0.40;0.40;;;10.50;99.90;;;;;;5096240;28;20181;-71
2023/06/05 01:52:23;;;;;;;0.50;0.50;;;10.00;99.90;;;;;;5096237;28;20079;-71
2023/06/05 01:54:49;;;;;;;0.40;0.40;;;10.00;99.90;;;;;;5094824;28;20468;-72
2023/06/05 01:57:15;;;;;;;0.50;0.50;;;9.90;99.90;;;;;;5095995;28;20119;-70
2023/06/05 01:59:43;;;;;;;0.40;0.40;;;9.90;99.90;;;;;;5096184;28;20420;-71
2023/06/05 02:02:08;;;;;;;0.50;0.50;;;9.90;99.90;;;;;;5095664;28;20101;-72
2023/06/05 02:04:34;;;;;;;0.65;0.65;;;10.40;99.90;;;;;;5095996;28;20052;-71
2023/06/05 02:07:03;;;;;;;0.50;0.50;;;9.80;99.90;;;;;;5095730;28;20044;-71
2023/06/05 02:09:32;;;;;;;0.50;0.50;;;9.80;99.90;;;;;;5095580;28;20040;-71
2023/06/05 02:12:03;;;;;;;0.50;0.50;;;10.10;99.90;;;;;;5095674;28;20051;-72
2023/06/05 02:14:29;;;;;;;0.40;0.40;;;9.80;99.90;;;;;;5095951;28;20078;-71
2023/06/05 02:16:56;;;;;;;0.50;0.50;;;9.90;99.90;;;;;;5095593;28;20459;-71
2023/06/05 02:19:22;;;;;;;0.50;0.50;;;9.70;99.90;;;;;;5095605;28;20076;-71
2023/06/05 02:21:47;;;;;;;0.60;0.60;;;9.70;99.90;;;;;;5095479;28;20079;-71
2023/06/05 02:24:13;;;;;;;0.50;0.50;;;9.70;99.90;;;;;;5095400;28;20036;-71
2023/06/05 02:26:38;;;;;;;0.50;0.50;;;9.70;99.90;;;;;;5095379;28;20047;-71
2023/06/05 02:29:05;;;;;;;0.60;0.60;;;9.60;99.90;;;;;;5095573;28;20368;-72
2023/06/05 02:31:30;;;;;;;0.40;0.40;;;9.60;99.90;;;;;;5095190;28;20378;-71
2023/06/05 02:33:56;;;;;;;0.50;0.50;;;9.60;99.90;;;;;;5094935;28;20032;-71
2023/06/05 02:36:24;;;;;;;0.50;0.50;;;9.60;99.90;;;;;;5095045;28;20367;-71
2023/06/05 02:38:50;;;;;;;0.50;0.50;;;9.60;99.90;;;;;;5095019;28;20043;-70
2023/06/05 02:41:21;;;;;;;0.57;0.57;;;9.50;99.90;;;;;;5095007;28;20048;-71
2023/06/05 02:43:47;;;;;;;0.50;0.50;;;9.60;99.90;;;;;;5095411;28;20120;-71
2023/06/05 02:46:12;;;;;;;0.50;0.50;;;9.50;99.90;;;;;;5095049;28;20044;-71
2023/06/05 02:48:38;;;;;;;0.50;0.50;;;9.40;99.90;;;;;;5094920;28;20047;-71
2023/06/05 02:51:03;;;;;;;0.50;0.50;;;9.40;99.90;;;;;;5094966;28;20043;-72
2023/06/05 02:53:29;;;;;;;0.70;0.70;;;9.50;99.90;;;;;;5093754;28;20036;-71
2023/06/05 02:55:55;;;;;;;0.50;0.50;;;9.30;99.90;;;;;;5094238;28;20047;-71
2023/06/05 02:58:21;;;;;;;0.60;0.60;;;9.40;99.90;;;;;;5095051;28;20383;-71
2023/06/05 03:00:49;;;;;;;0.50;0.50;;;9.40;99.90;;;;;;5094579;28;20483;-71
2023/06/05 03:03:16;;;;;;;0.50;0.50;;;10.00;99.90;;;;;;5093272;28;20151;-70
2023/06/05 03:05:42;;;;;;;;;;;9.30;99.90;;;;;;5094623;28;20040;-71
2023/06/05 03:08:08;;;;;;;0.50;0.50;;;9.50;99.90;;;;;;5093552;28;20006;-71
2023/06/05 03:10:34;;;;;;;0.50;0.50;;;9.30;99.90;;;;;;5094690;28;20161;-71
2023/06/05 03:12:59;;;;;;;0.50;0.50;;;9.80;99.90;;;;;;5094670;28;20482;-70
2023/06/05 03:15:25;;;;;;;0.50;0.50;;;9.30;99.90;;;;;;5094221;28;20093;-71
2023/06/05 03:17:51;;;;;;;0.50;0.50;;;9.60;99.90;;;;;;5094120;28;20040;-72
2023/06/05 03:20:19;;;;;;;0.50;0.50;;;9.30;99.90;;;;;;5094098;28;20039;-71
2023/06/05 03:22:45;;;;;;;0.50;0.50;;;9.30;99.90;;;;;;5093191;28;20102;-71
2023/06/05 03:25:10;;;;;;;1.08;1.08;;;9.60;99.90;;;;;;5094152;28;20071;-71
2023/06/05 03:27:36;;;;;;;1.70;1.60;;;9.30;99.90;;;;;;5094324;28;20040;-71
2023/06/05 03:30:03;;;;;;;0.50;0.50;;;9.30;99.90;;;;;;5094032;28;20487;-71
2023/06/05 03:32:29;;;;;;;0.60;0.60;;;9.30;99.90;;;;;;5094125;28;20047;-71
2023/06/05 03:34:55;;;;;;;0.60;0.60;;;9.40;99.90;;;;;;5093744;28;20115;-71
2023/06/05 03:37:21;;;;;;;0.50;0.50;;;9.30;99.90;;;;;;5093969;28;20046;-70
2023/06/05 03:39:47;;;;;;;0.50;0.50;;;9.30;99.90;;;;;;5093669;28;20500;-72
2023/06/05 03:42:12;;;;;;;0.50;0.50;;;9.30;99.90;;;;;;5094155;28;20032;-71
2023/06/05 03:44:38;;;;;;;0.50;0.50;;;9.30;99.90;;;;;;5092694;28;20048;-71
2023/06/05 03:47:05;;;;;;;0.57;0.57;;;9.30;99.90;;;;;;5094168;28;20036;-71
2023/06/05 03:49:31;;;;;;;0.50;0.50;;;9.30;99.90;;;;;;5093959;28;20104;-70
2023/06/05 03:52:02;;;;;;;0.82;0.82;;;9.40;99.90;;;;;;5093635;28;20040;-71
2023/06/05 03:54:28;;;;;;;0.50;0.50;;;9.40;99.90;;;;;;5093970;28;20131;-71
2023/06/05 03:56:58;;;;;;;0.60;0.60;;;9.30;99.90;;;;;;5093919;28;20097;-71
2023/06/05 03:59:25;;;;;;;0.75;0.75;;;9.50;99.90;;;;;;5094028;28;20044;-71
2023/06/05 04:01:51;;;;;;;0.60;0.60;;;9.60;99.90;;;;;;5093786;28;20121;-71
2023/06/05 04:04:17;;;;;;;0.60;0.60;;;9.60;99.90;;;;;;5093467;28;20093;-71
2023/06/05 04:06:43;;;;;;;0.50;0.50;;;9.60;99.90;;;;;;5093546;28;20032;-71
2023/06/05 04:09:12;;;;;;;0.50;0.50;;;9.60;99.90;;;;;;5093892;28;20402;-71
2023/06/05 04:11:44;;;;;;;0.60;0.60;;;9.60;99.90;;;;;;5093695;28;20028;-71
2023/06/05 04:14:10;;;;;;;0.70;0.70;;;9.60;99.90;;;;;;5093741;28;20040;-71
2023/06/05 04:16:42;;;;;;;0.50;0.50;;;9.70;99.90;;;;;;5093552;28;20056;-71
2023/06/05 04:19:10;;;;;;;0.60;0.60;;;9.70;99.90;;;;;;5092770;28;20086;-70
2023/06/05 04:21:37;;;;;;;0.50;0.50;;;9.70;99.90;;;;;;5093441;28;20048;-70
2023/06/05 04:24:10;;;;;;;0.50;0.50;;;9.70;99.90;;;;;;5093803;28;20107;-70
2023/06/05 04:26:38;;;;;;;0.50;0.50;;;9.70;99.90;;;;;;5093517;28;20043;-70
2023/06/05 04:29:13;;;;;;;0.55;0.55;;;9.70;99.90;;;;;;5093337;28;20386;-72
2023/06/05 04:31:43;;;;;;;0.70;0.70;;;9.80;99.90;;;;;;5093377;28;20365;-71
2023/06/05 04:34:08;;;;;;;0.60;0.60;;;9.80;99.90;;;;;;5093713;28;20067;-70
2023/06/05 04:36:36;;;;;;;0.68;0.68;;;9.90;99.90;;;;;;5093604;28;20036;-71
2023/06/05 04:39:03;;;;;;;0.50;0.50;;;10.00;99.90;;;;;;5093311;28;20043;-71
2023/06/05 04:41:32;;;;;;;0.50;0.50;;;10.10;99.90;;;;;;5093278;28;20044;-70
2023/06/05 04:43:59;;;;;;;0.50;0.50;;;10.30;99.90;;;;;;5093172;28;20048;-71
2023/06/05 04:46:26;;;;;;;0.50;0.50;;;10.40;99.90;;;;;;5093208;28;20047;-71
2023/06/05 04:48:55;;;;;;;0.60;0.60;;;10.50;99.90;;;;;;5093236;28;20059;-71
2023/06/05 04:51:21;;;;;;;0.88;0.88;;;10.30;99.90;;;;;;5093162;28;20040;-71
2023/06/05 04:53:50;;;;;;;0.50;0.50;;;10.40;99.90;;;;;;5093201;28;20044;-70
2023/06/05 04:56:16;;;;;;;0.50;0.50;;;10.40;99.90;;;;;;5093093;28;20140;-72
2023/06/05 04:58:42;;;;;;;0.50;0.50;;;10.40;99.90;;;;;;5093130;28;20044;-71
2023/06/05 05:01:08;;;;;;;0.50;0.50;;;10.40;99.90;;;;;;5093003;28;20286;-70
2023/06/05 05:03:33;;;;;;;0.50;0.50;;;10.50;99.90;;;;;;5093214;28;20075;-70
2023/06/05 05:06:00;;;;;;;0.50;0.50;;;11.20;99.90;;;;;;5093016;28;20127;-71
2023/06/05 05:08:27;;;;;;;0.50;0.50;;;10.60;99.90;;;;;;5092973;28;20032;-71
2023/06/05 05:10:53;;;;;;;0.50;0.50;;;10.60;99.90;;;;;;5093057;28;20044;-69
2023/06/05 05:13:19;;;;;;;0.50;0.50;;;10.60;99.90;;;;;;5092885;28;20157;-70
2023/06/05 05:15:45;;;;;;;0.50;0.50;;;10.70;99.90;;;;;;5092956;28;20051;-70
2023/06/05 05:18:11;;;;;;;0.50;0.50;;;11.30;99.90;;;;;;5093839;28;20055;-69
2023/06/05 05:20:38;;;;;;;0.50;0.50;;;11.30;99.90;;;;;;5096649;28;20464;-71
2023/06/05 05:23:04;;;;;;;0.93;0.93;;;11.10;99.90;;;;;;5096610;28;20040;-70
2023/06/05 05:25:30;;;;;;;0.50;0.50;;;11.50;99.90;;;;;;5096615;28;20044;-71
2023/06/05 05:27:55;;;;;;;0.40;0.40;;;11.70;99.90;;;;;;5096612;28;20083;-71
2023/06/05 05:30:21;;;;;;;0.50;0.50;;;;;;;;;;5096496;28;20051;-72
2023/06/05 05:32:47;;;;;;;0.50;0.50;;;11.70;99.90;;;;;;5095700;28;20032;-71
2023/06/05 05:35:12;;;;;;;0.50;0.50;;;11.90;99.90;;;;;;5096759;28;20032;-71
2023/06/05 05:37:38;;;;;;;0.73;0.73;;;12.10;99.90;;;;;;5096476;28;20413;-70
2023/06/05 05:40:05;;;;;;;1.02;1.02;;;12.40;99.90;;;;;;5096424;28;20044;-71
2023/06/05 05:42:30;;;;;;;0.40;0.40;;;12.60;99.90;;;;;;5096270;28;20048;-70
2023/06/05 05:44:56;;;;;;;0.50;0.50;;;12.90;99.90;;;;;;5096730;28;20051;-70
2023/06/05 05:47:21;;;;;;;0.50;0.50;;;12.90;99.90;;;;;;5096629;28;20040;-71
2023/06/05 05:49:47;;;;;;;0.40;0.40;;;12.90;99.90;;;;;;5095865;28;20040;-71
2023/06/05 05:52:12;;;;;;;0.53;0.53;;;13.20;99.90;;;;;;5096146;28;20133;-71
2023/06/05 05:54:38;;;;;;;0.47;0.47;;;13.20;99.90;;;;;;5096067;28;20032;-70
2023/06/05 05:57:04;;;;;;;0.40;0.40;;;13.30;99.90;;;;;;5096048;28;20044;-70
2023/06/05 05:59:30;;;;;;;0.57;0.57;;;13.40;99.90;;;;;;5096057;28;20044;-70
2023/06/05 06:01:59;;;;;;;0.40;0.40;;;13.60;99.90;;;;;;5096277;28;20051;-71
2023/06/05 06:04:24;;;;;;;0.40;0.40;;;13.80;99.90;;;;;;5095099;28;20056;-70
2023/06/05 06:06:52;;;;;;;0.40;0.40;;;14.10;99.90;;;;;;5095847;28;20048;-71
2023/06/05 06:09:18;;;;;;;1.10;1.05;;;14.00;99.90;;;;;;5095706;28;20055;-71
2023/06/05 06:11:44;;;;;;;1.13;0.97;;;14.20;99.90;;;;;;5095819;28;20123;-71
2023/06/05 06:14:10;;;;;;;0.47;0.47;;;14.10;99.90;;;;;;5095281;28;20036;-71
2023/06/05 06:16:40;;;;;;;0.50;0.50;;;14.20;99.90;;;;;;5095654;28;20051;-71
2023/06/05 06:19:08;;;;;;;0.50;0.50;;;14.30;99.90;;;;;;5095534;28;20599;-71
2023/06/05 06:21:34;;;;;;;0.50;0.50;;;14.20;99.90;;;;;;5095488;28;20093;-70
2023/06/05 06:23:59;;;;;;;0.50;0.50;;;14.30;99.90;;;;;;5095746;28;20044;-71
2023/06/05 06:26:26;;;;;;;0.67;0.67;;;14.40;99.90;;;;;;5095138;28;20040;-71
2023/06/05 06:28:52;;;;;;;0.50;0.50;;;14.50;99.90;;;;;;5095139;28;20097;-71
2023/06/05 06:31:18;;;;;;;0.50;0.50;;;14.40;99.90;;;;;;5095925;28;20048;-71
2023/06/05 06:33:44;;;;;;;0.60;0.60;;;14.50;99.90;;;;;;5095297;28;20036;-71
2023/06/05 06:36:10;;;;;;;0.60;0.60;;;14.60;99.90;;;;;;5095306;28;20044;-71
2023/06/05 06:38:36;;;;;;;0.50;0.50;;;14.70;99.90;;;;;;5095386;28;20036;-70
2023/06/05 06:41:01;;;;;;;0.60;0.60;;;14.70;99.90;;;;;;5095260;28;20047;-71
2023/06/05 06:43:27;;;;;;;0.90;0.90;;;14.80;99.90;;;;;;5095177;28;20131;-70
2023/06/05 06:45:53;;;;;;;0.60;0.60;;;14.90;99.90;;;;;;5095084;28;20048;-71
2023/06/05 06:48:18;;;;;;;0.53;0.53;;;14.80;99.90;;;;;;5094921;28;20067;-71
2023/06/05 06:50:44;;;;;;;0.60;0.60;;;15.00;99.90;;;;;;5094111;28;20230;-72
2023/06/05 06:53:10;;;;;;;0.60;0.60;;;14.90;99.90;;;;;;5094906;28;20067;-71
2023/06/05 06:55:36;;;;;;;0.82;0.82;;;15.00;99.90;;;;;;5094954;28;20039;-72
2023/06/05 06:58:02;;;;;;;0.57;0.57;;;15.20;99.90;;;;;;5094875;28;20044;-70
2023/06/05 07:00:27;;;;;;;0.60;0.60;;;15.40;99.90;;;;;;5095146;28;20050;-71
2023/06/05 07:02:53;;;;;;;0.50;0.50;;;15.40;99.90;;;;;;5094623;28;20043;-70
2023/06/05 07:05:19;;;;;;;0.60;0.60;;;15.50;99.90;;;;;;5094979;28;20071;-72
2023/06/05 07:07:45;;;;;;;0.50;0.50;;;15.50;99.90;;;;;;5094679;28;20046;-71
2023/06/05 07:10:11;;;;;;;0.50;0.50;;;15.60;99.90;;;;;;5094542;28;20036;-72
2023/06/05 07:12:37;;;;;;;0.50;0.50;;;15.60;99.90;;;;;;5094557;28;20396;-71
2023/06/05 07:15:03;;;;;;;0.70;0.70;;;15.40;99.90;;;;;;5094623;28;20119;-72
2023/06/05 07:17:30;;;;;;;0.95;0.80;;;15.60;99.90;;;;;;5094454;28;20047;-71
2023/06/05 07:19:57;;;;;;;0.60;0.60;;;15.70;99.90;;;;;;5094459;28;20044;-71
2023/06/05 07:22:24;;;;;;;;;;;15.70;99.90;;;;;;5095020;28;20388;-71
2023/06/05 07:24:50;;;;;;;0.50;0.50;;;15.80;99.90;;;;;;5094402;28;19939;-71
2023/06/05 07:27:16;;;;;;;0.40;0.40;;;15.90;99.90;;;;;;5094020;28;20460;-71
2023/06/05 07:29:42;;;;;;;0.65;0.65;;;16.00;99.90;;;;;;5094198;28;20040;-70
2023/06/05 07:32:08;;;;;;;0.50;0.50;;;16.10;99.90;;;;;;5094717;28;20040;-70
2023/06/05 07:34:36;;;;;;;0.50;0.50;;;16.10;99.90;;;;;;5094775;28;20119;-71
2023/06/05 07:37:02;;;;;;;0.60;0.60;;;16.10;99.90;;;;;;5094047;28;20072;-70
2023/06/05 07:39:28;;;;;;;0.40;0.40;;;16.20;99.90;;;;;;5093077;28;20075;-70
2023/06/05 07:41:54;;;;;;;0.40;0.40;;;16.30;99.90;;;;;;5093450;28;20352;-70
2023/06/05 07:44:23;;;;;;;0.50;0.50;;;16.40;99.90;;;;;;5094387;28;20489;-70
2023/06/05 07:46:50;;;;;;;0.40;0.40;;;16.30;99.90;;;;;;5094023;28;20036;-71
2023/06/05 07:49:16;;;;;;;0.45;0.45;;;16.40;99.90;;;;;;5093918;28;20075;-71
2023/06/05 07:51:42;;;;;;;0.40;0.40;;;16.40;99.90;;;;;;5094010;28;20078;-71
2023/06/05 07:54:10;;;;;;;0.73;0.73;;;16.60;99.90;;;;;;5093897;28;20040;-70
2023/06/05 07:56:36;;;;;;;0.40;0.40;;;16.70;99.90;;;;;;5094210;28;20089;-71
2023/06/05 07:59:03;;;;;;;0.47;0.47;;;16.80;99.90;;;;;;5094094;28;20036;-71
2023/06/05 08:01:30;;;;;;;0.60;0.60;;;16.90;99.90;;;;;;5093817;28;20047;-71
2023/06/05 08:03:56;;;;;;;0.40;0.40;;;17.00;99.90;;;;;;5093951;28;20520;-70
2023/06/05 08:06:24;;;;;;;0.40;0.40;;;17.20;99.90;;;;;;5093737;28;20063;-70
2023/06/05 08:08:50;;;;;;;0.45;0.45;;;17.20;99.90;;;;;;5093481;28;20043;-71
2023/06/05 08:11:16;;;;;;;0.57;0.57;;;17.40;99.90;;;;;;5093708;28;20050;-72
2023/06/05 08:13:42;;;;;;;0.40;0.40;;;17.50;99.90;;;;;;5093626;28;20040;-72
2023/06/05 08:16:07;;;;;;;0.40;0.40;;;17.60;99.90;;;;;;5093912;28;20097;-71
2023/06/05 08:18:33;;;;;;;0.30;0.30;;;17.50;99.90;;;;;;5093634;28;20040;-72
2023/06/05 08:20:59;;;;;;;0.40;0.40;;;17.50;99.90;;;;;;5093606;28;20134;-72
2023/06/05 08:23:26;;;;;;;0.40;0.40;;;17.50;99.90;;;;;;5093609;28;20048;-71
2023/06/05 08:25:52;;;;;;;0.50;0.50;;;17.60;99.90;;;;;;5093516;28;20032;-71
2023/06/05 08:28:18;;;;;;;0.40;0.40;;;17.60;99.90;;;;;;5093539;28;20096;-71
2023/06/05 08:30:46;;;;;;;0.40;0.40;;;17.70;99.90;;;;;;5093582;28;20500;-71
2023/06/05 08:33:12;;;;;;;0.40;0.40;;;17.90;99.90;;;;;;5093459;28;20040;-70
2023/06/05 08:35:41;;;;;;;0.87;0.87;;;18.10;99.90;;;;;;5093450;28;20051;-70
2023/06/05 08:38:07;;;;;;;0.40;0.40;;;18.00;99.90;;;;;;5093360;28;20386;-70
2023/06/05 08:40:33;;;;;;;0.70;0.70;;;18.10;99.90;;;;;;5093131;28;20472;-70
2023/06/05 08:43:02;;;;;;;0.40;0.40;;;18.00;99.90;;;;;;5094038;28;20631;-71
2023/06/05 08:45:30;;;;;;;0.57;0.57;;;18.10;99.90;;;;;;5093359;28;20071;-70
2023/06/05 08:48:00;;;;;;;0.40;0.40;;;18.10;99.90;;;;;;5093144;28;20047;-72
2023/06/05 08:50:30;;;;;;;0.30;0.30;;;18.20;99.90;;;;;;5093340;28;20044;-72
2023/06/05 08:53:00;;;;;;;14.57;0.93;;;18.30;99.90;;;;;;5093779;28;20040;-71
2023/06/05 08:55:27;;;;;;;0.40;0.40;;;18.50;99.90;;;;;;5098041;28;20051;-71
2023/06/05 08:57:53;;;;;;;0.40;0.40;;;18.60;99.90;;;;;;5097163;28;20077;-71
2023/06/05 09:00:19;;;;;;;0.40;0.40;;;18.60;99.90;;;;;;5097478;28;20036;-71
2023/06/05 09:02:48;;;;;;;0.50;0.50;;;18.70;99.90;;;;;;5097058;28;20043;-71
2023/06/05 09:05:17;;;;;;;0.50;0.50;;;18.60;99.90;;;;;;5096766;28;20522;-71
2023/06/05 09:07:43;;;;;;;0.40;0.40;;;18.60;99.90;;;;;;5096994;28;20376;-72
2023/06/05 09:10:25;;;;;;;0.40;0.40;;;18.80;99.90;;;;;;5097442;28;20040;-71
2023/06/05 09:12:58;;;;;;;0.50;0.50;;;18.90;99.90;;;;;;5096569;28;20495;-72
2023/06/05 09:15:26;;;;;;;0.40;0.40;;;19.10;99.90;;;;;;5096771;28;20464;-71
2023/06/05 09:18:14;;;;;;;0.40;0.40;;;19.10;99.90;;;;;;5096416;28;20040;-72
2023/06/05 09:20:42;;;;;;;0.60;0.50;;;19.30;99.90;;;;;;5097052;28;20044;-72
2023/06/05 09:23:27;;;;;;;0.40;0.40;;;19.30;99.90;;;;;;5096711;28;20050;-71
2023/06/05 09:25:58;;;;;;;0.45;0.45;;;19.30;99.90;;;;;;5096670;28;20044;-71
2023/06/05 09:28:24;;;;;;;0.30;0.30;;;19.20;99.90;;;;;;5096637;28;20438;-71
2023/06/05 09:31:03;;;;;;;0.40;0.40;;;19.30;99.90;;;;;;5096680;28;20086;-72
2023/06/05 09:33:34;;;;;;;0.40;0.40;;;19.40;99.90;;;;;;5096928;28;20036;-71
2023/06/05 09:36:05;;;;;;;0.30;0.30;;;19.60;99.90;;;;;;5096512;28;20044;-72
2023/06/05 09:38:31;;;;;;;0.30;0.30;;;19.70;99.90;;;;;;5096487;28;20126;-71
2023/06/05 09:41:04;;;;;;;0.40;0.40;;;19.60;99.90;;;;;;5096354;28;20482;-72
2023/06/05 09:43:30;;;;;;;0.30;0.30;;;19.60;99.90;;;;;;5096374;28;20082;-72
2023/06/05 09:45:55;;;;;;;0.30;0.30;;;19.60;99.90;;;;;;5095321;28;20487;-72
2023/06/05 09:48:21;;;;;;;0.30;0.30;;;19.60;99.90;;;;;;5096458;28;20032;-71
2023/06/05 09:50:46;;;;;;;0.30;0.30;;;19.50;99.90;;;;;;5096288;28;20043;-71
2023/06/05 09:53:16;;;;;;;0.30;0.30;;;19.60;99.90;;;;;;5096145;28;20071;-72
2023/06/05 09:55:42;;;;;;;0.80;0.80;;;19.80;99.90;;;;;;5096089;28;20067;-72
2023/06/05 09:58:13;;;;;;;0.73;0.40;;;19.70;99.90;;;;;;5096048;28;20439;-72
2023/06/05 10:00:41;;;;;;;0.50;0.50;;;19.90;99.90;;;;;;5096341;28;20263;-72
2023/06/05 10:03:17;;;;;;;0.30;0.30;;;20.00;99.90;;;;;;5094626;28;20055;-71
2023/06/05 10:05:44;;;;;;;0.30;0.30;;;20.10;99.90;;;;;;5095657;28;20036;-72
2023/06/05 10:08:11;;;;;;;0.20;0.20;;;20.10;99.90;;;;;;5095649;28;20043;-71
2023/06/05 10:10:38;;;;;;;0.38;0.38;;;20.30;99.90;;;;;;5095860;28;20096;-71
2023/06/05 10:13:04;;;;;;;0.30;0.30;;;20.30;99.90;;;;;;5095745;28;20502;-72
2023/06/05 10:15:31;;;;;;;0.30;0.30;;;20.40;99.90;;;;;;5095486;28;20040;-72
2023/06/05 10:17:57;;;;;;;0.40;0.40;;;20.30;99.90;;;;;;5095382;28;20472;-71
2023/06/05 10:20:23;;;;;;;0.40;0.40;;;20.50;99.90;;;;;;5095712;28;20036;-72
2023/06/05 10:22:50;;;;;;;0.40;0.40;;;20.80;99.90;;;;;;5095520;28;20054;-71
2023/06/05 10:25:19;;;;;;;0.40;0.40;;;21.00;99.90;;;;;;5095877;28;20039;-72
2023/06/05 10:28:19;;;;;;;0.50;0.50;;;21.00;99.90;;;;;;5095430;28;20123;-72
2023/06/05 10:30:55;;;;;;;0.43;0.43;;;20.90;99.90;;;;;;5095501;28;20043;-72
2023/06/05 10:33:23;;;;;;;0.40;0.40;;;20.90;99.90;;;;;;5094079;28;20547;-71
2023/06/05 10:36:01;;;;;;;12.07;1.65;;;20.80;99.90;;;;;;5095377;28;20055;-72
2023/06/05 10:38:28;;;;;;;7.65;0.85;;;20.90;99.90;;;;;;5095251;28;20047;-72
2023/06/05 10:40:55;;;;;;;0.30;0.30;;;21.00;99.90;;;;;;5095281;28;20044;-72
2023/06/05 10:43:36;;;;;;;0.30;0.30;;;21.10;99.90;;;;;;5095173;28;20120;-72
2023/06/05 10:46:22;;;;;;;0.30;0.30;;;21.00;99.90;;;;;;5095171;28;20047;-71
2023/06/05 10:49:07;;;;;;;0.40;0.40;;;21.00;99.90;;;;;;5095190;28;20376;-72
2023/06/05 10:51:40;;;;;;;0.40;0.40;;;21.00;99.90;;;;;;5094958;28;20380;-72
2023/06/05 10:54:16;;;;;;;0.55;0.40;;;21.30;99.90;;;;;;5094997;28;20044;-72
2023/06/05 10:56:59;;;;;;;0.30;0.30;;;21.40;99.90;;;;;;5095120;28;20040;-73
2023/06/05 10:59:27;;;;;;;0.30;0.30;;;21.50;99.90;;;;;;5094664;28;20475;-72
2023/06/05 11:02:05;;;;;;;0.30;0.30;;;21.60;99.90;;;;;;5094919;28;20052;-72
2023/06/05 11:04:49;;;;;;;0.40;0.40;;;21.80;99.90;;;;;;5094837;28;20048;-71
2023/06/05 11:07:45;;;;;;;0.68;0.40;;;21.90;99.90;;;;;;5094756;28;20536;-71
2023/06/05 11:10:17;;;;;;;0.40;0.40;;;21.90;99.90;;;;;;5077902;28;20075;-72
2023/06/05 11:12:44;;;;;;;0.30;0.30;;;22.00;99.90;;;;;;5094626;28;20043;-71
2023/06/05 11:15:11;;;;;;;0.30;0.30;;;22.00;99.90;;;;;;5094133;28;20047;-72
2023/06/05 11:17:37;;;;;;;0.40;0.40;;;21.90;99.90;;;;;;5094091;28;20051;-71
2023/06/05 11:20:10;;;;;;;0.95;0.82;;;22.10;99.90;;;;;;5094522;28;20396;-72
2023/06/05 11:22:53;;;;;;;0.40;0.40;;;22.10;99.90;;;;;;5094688;28;20040;-72
2023/06/05 11:25:24;;;;;;;1.20;0.55;;;22.30;99.90;;;;;;5094448;28;20097;-71
2023/06/05 11:28:04;;;;;;;0.30;0.30;;;22.20;99.90;;;;;;5094352;28;20044;-72
2023/06/05 11:30:42;;;;;;;0.60;0.60;;;22.10;99.90;;;;;;5094583;28;20391;-72
2023/06/05 11:33:12;;;;;;;0.30;0.30;;;22.10;99.90;;;;;;5094307;28;20459;-72
2023/06/05 11:35:38;;;;;;;0.47;0.47;;;22.10;99.90;;;;;;5094312;28;20141;-72
2023/06/05 11:38:08;;;;;;;0.30;0.30;;;22.40;99.90;;;;;;5094181;28;20070;-72
2023/06/05 11:40:35;;;;;;;0.30;0.30;;;22.50;99.90;;;;;;5093790;28;20533;-71
2023/06/05 11:43:06;;;;;;;0.30;0.30;;;22.60;99.90;;;;;;5093483;28;20434;-73
2023/06/05 11:45:36;;;;;;;0.30;0.30;;;22.70;99.90;;;;;;5094014;28;20048;-72
2023/06/05 11:48:13;;;;;;;0.30;0.30;;;22.90;99.90;;;;;;5094028;28;20043;-72
2023/06/05 11:50:51;;;;;;;0.30;0.30;;;22.80;99.90;;;;;;5093898;28;20031;-71
2023/06/05 11:53:17;;;;;;;0.30;0.30;;;22.90;99.90;;;;;;5094006;28;20048;-73
2023/06/05 11:58:29;;;;;;;0.30;0.30;;;22.80;99.90;;;;;;5093798;28;20750;-73
2023/06/05 12:01:05;;;;;;;0.30;0.30;;;22.80;99.90;;;;;;5092628;28;20388;-71
2023/06/05 12:03:32;;;;;;;0.30;0.30;;;22.70;99.90;;;;;;5093747;28;20055;-71
2023/06/05 12:05:58;;;;;;;0.30;0.30;;;22.30;99.90;;;;;;5094125;28;20044;-72
2023/06/05 12:08:35;;;;;;;0.30;0.30;;;22.40;99.90;;;;;;5093617;28;20035;-72
2023/06/05 12:11:02;;;;;;;0.30;0.30;;;22.50;99.90;;;;;;5094121;28;20054;-72
2023/06/05 12:13:53;;;;;;;0.40;0.40;;;22.60;99.90;;;;;;5093933;28;20429;-72
2023/06/05 12:16:28;;;;;;;0.30;0.30;;;22.90;99.90;;;;;;5094103;28;20089;-72
2023/06/05 12:18:55;;;;;;;0.30;0.30;;;22.90;99.90;;;;;;5093968;28;20376;-72
2023/06/05 12:21:22;;;;;;;;;;;23.10;99.90;;;;;;5094071;28;20072;-71
2023/06/05 12:23:48;;;;;;;0.50;0.50;;;23.10;99.90;;;;;;5093713;28;19939;-72
2023/06/05 12:26:15;;;;;;;0.30;0.30;;;23.00;99.90;;;;;;5093475;28;20087;-72
2023/06/05 12:28:42;;;;;;;0.30;0.30;;;23.10;99.90;;;;;;5097185;28;20040;-71
2023/06/05 12:31:07;;;;;;;0.30;0.30;;;23.20;99.90;;;;;;5097759;28;20406;-72
2023/06/05 12:33:46;;;;;;;0.30;0.30;;;23.30;99.90;;;;;;5097672;28;20036;-72
2023/06/05 12:36:12;;;;;;;0.20;0.20;;;23.50;99.90;;;;;;5097755;28;20051;-71
2023/06/05 12:38:40;;;;;;;0.20;0.20;;;23.70;99.90;;;;;;5096556;28;20048;-72
2023/06/05 12:41:06;;;;;;;0.30;0.30;;;23.60;99.90;;;;;;5097535;28;20044;-73
2023/06/05 12:43:33;;;;;;;0.30;0.30;;;23.70;99.30;;;;;;5097562;28;20036;-72
2023/06/05 12:45:59;;;;;;;0.20;0.20;;;23.50;99.10;;;;;;5096281;28;20371;-73
2023/06/05 12:48:25;;;;;;;0.30;0.30;;;23.60;99.70;;;;;;5097372;28;20432;-71
2023/06/05 12:50:51;;;;;;;0.20;0.20;;;23.50;99.50;;;;;;5097448;28;20079;-71
2023/06/05 12:53:17;;;;;;;0.30;0.30;;;23.60;99.30;;;;;;5096300;28;20420;-72
2023/06/05 12:55:43;;;;;;;0.20;0.20;;;23.70;99.60;;;;;;5097311;28;20043;-72
2023/06/05 12:58:09;;;;;;;0.40;0.40;;;23.80;99.10;;;;;;5097575;28;20371;-71